Time;durP1;ratioP1;P1;durP2;ratioP2;P2;SDS_P1;SDS_P2;PMS_P1;PMS_P2;Temp;Humidity;BMP_temperature;BMP_pressure;BME280_temperature;BME280_humidity;BME280_pressure;Samples;Min_cycle;Max_cycle;Signal;HPM_P1;HPM_P2
2023/12/08 00:00:36;;;;;;;11.05;8.02;;;1.60;99.90;;;;;;5016156;28;20259;-69
2023/12/08 00:03:04;;;;;;;13.00;9.57;;;1.60;99.90;;;;;;5006355;28;20225;-70
2023/12/08 00:05:32;;;;;;;13.13;9.57;;;1.60;99.90;;;;;;5019167;28;20205;-69
2023/12/08 00:08:00;;;;;;;11.70;8.57;;;1.60;99.90;;;;;;5021356;28;20300;-69
2023/12/08 00:10:28;;;;;;;14.38;10.20;;;1.60;99.90;;;;;;5008745;28;20742;-67
2023/12/08 00:12:56;;;;;;;11.65;8.65;;;1.60;99.90;;;;;;5013958;28;20235;-70
2023/12/08 00:15:25;;;;;;;11.70;8.65;;;1.60;99.90;;;;;;5017038;28;20216;-70
2023/12/08 00:17:53;;;;;;;14.40;8.48;;;1.60;99.90;;;;;;5020041;28;20211;-70
2023/12/08 00:20:21;;;;;;;13.80;8.73;;;1.70;99.90;;;;;;5017848;28;20206;-69
2023/12/08 00:22:50;;;;;;;13.52;10.10;;;1.80;99.90;;;;;;5001700;28;20220;-70
2023/12/08 00:25:18;;;;;;;13.25;8.75;;;1.70;99.90;;;;;;5016088;28;20218;-71
2023/12/08 00:27:45;;;;;;;13.23;8.95;;;1.80;99.90;;;;;;5032767;28;20204;-70
2023/12/08 00:30:14;;;;;;;11.35;7.78;;;1.80;99.90;;;;;;5017345;28;20216;-70
2023/12/08 00:32:43;;;;;;;13.32;8.63;;;1.70;99.90;;;;;;5001819;28;20593;-69
2023/12/08 00:35:11;;;;;;;13.73;9.57;;;1.80;99.90;;;;;;5006820;28;20228;-68
2023/12/08 00:37:39;;;;;;;11.43;8.75;;;1.80;99.90;;;;;;5022632;28;20209;-71
2023/12/08 00:40:08;;;;;;;11.40;8.68;;;1.80;99.90;;;;;;5009140;28;20216;-70
2023/12/08 00:42:36;;;;;;;11.30;7.60;;;1.80;99.90;;;;;;5020865;28;20248;-70
2023/12/08 00:45:04;;;;;;;10.07;7.60;;;1.80;99.90;;;;;;5015957;28;20614;-70
2023/12/08 00:47:32;;;;;;;13.02;8.75;;;1.80;99.90;;;;;;5010759;28;20280;-70
2023/12/08 00:50:02;;;;;;;12.75;8.25;;;1.80;99.90;;;;;;5016647;28;20208;-67
2023/12/08 00:52:30;;;;;;;10.90;7.90;;;1.90;99.90;;;;;;5019326;28;20283;-70
2023/12/08 00:54:58;;;;;;;11.00;8.05;;;1.90;99.90;;;;;;5016197;28;20213;-70
2023/12/08 00:57:26;;;;;;;11.45;9.02;;;1.90;99.90;;;;;;5000924;28;20624;-69
2023/12/08 00:59:55;;;;;;;12.25;8.80;;;1.90;99.90;;;;;;5001419;28;20209;-70
2023/12/08 01:02:23;;;;;;;10.07;7.80;;;1.90;99.90;;;;;;5011515;28;20232;-70
2023/12/08 01:04:50;;;;;;;13.25;8.15;;;2.00;99.90;;;;;;5016449;28;20204;-70
2023/12/08 01:07:20;;;;;;;9.23;8.18;;;1.90;99.90;;;;;;5001931;28;20574;-70
2023/12/08 01:09:48;;;;;;;13.23;7.88;;;1.90;99.90;;;;;;5004371;28;20201;-70
2023/12/08 01:12:16;;;;;;;11.38;7.57;;;1.90;99.90;;;;;;5017083;28;20216;-70
2023/12/08 01:14:44;;;;;;;12.70;8.93;;;1.90;99.90;;;;;;5006821;28;20357;-69
2023/12/08 01:17:12;;;;;;;9.35;7.72;;;1.90;99.90;;;;;;5015907;28;20275;-70
2023/12/08 01:19:40;;;;;;;11.45;8.30;;;1.90;99.90;;;;;;5012273;28;20206;-69
2023/12/08 01:22:07;;;;;;;12.02;8.15;;;2.00;99.90;;;;;;5010672;28;20308;-69
2023/12/08 01:24:38;;;;;;;9.93;7.88;;;2.00;99.90;;;;;;5003023;28;20230;-68
2023/12/08 01:27:05;;;;;;;11.93;8.68;;;2.00;99.90;;;;;;5005520;28;20262;-69
2023/12/08 01:29:33;;;;;;;10.48;8.10;;;2.00;99.90;;;;;;5015248;28;20293;-69
2023/12/08 01:32:02;;;;;;;11.38;8.20;;;2.00;99.90;;;;;;5008786;28;20233;-68
2023/12/08 01:34:29;;;;;;;12.15;8.50;;;1.90;99.90;;;;;;5003845;28;20296;-68
2023/12/08 01:36:57;;;;;;;10.65;8.88;;;1.90;99.90;;;;;;5006813;28;20643;-70
2023/12/08 01:39:25;;;;;;;10.02;8.30;;;1.90;99.90;;;;;;5016857;28;20254;-70
2023/12/08 01:41:55;;;;;;;10.50;7.25;;;1.90;99.90;;;;;;5009381;28;20225;-69
2023/12/08 01:44:23;;;;;;;10.98;9.07;;;1.90;99.90;;;;;;5016623;28;20215;-69
2023/12/08 01:46:52;;;;;;;14.00;9.05;;;1.90;99.90;;;;;;5009463;28;20571;-69
2023/12/08 01:49:20;;;;;;;12.45;8.77;;;1.90;99.90;;;;;;5009296;28;20221;-71
2023/12/08 01:51:50;;;;;;;10.65;7.57;;;1.80;99.90;;;;;;5005711;28;20255;-69
2023/12/08 01:54:18;;;;;;;12.32;9.52;;;1.90;99.90;;;;;;5008459;28;20248;-70
2023/12/08 01:56:46;;;;;;;11.50;8.30;;;1.90;99.90;;;;;;5011906;28;20216;-69
2023/12/08 01:59:16;;;;;;;11.80;9.05;;;1.90;99.90;;;;;;5014853;28;20208;-70
2023/12/08 02:01:44;;;;;;;12.73;9.48;;;2.00;99.90;;;;;;5010192;28;20644;-70
2023/12/08 02:04:12;;;;;;;10.93;8.80;;;1.90;99.90;;;;;;5005670;28;20202;-69
2023/12/08 02:06:40;;;;;;;12.20;8.85;;;1.90;99.90;;;;;;5004763;28;20205;-69
2023/12/08 02:09:09;;;;;;;12.55;7.70;;;1.80;99.90;;;;;;5004716;28;20668;-70
2023/12/08 02:11:38;;;;;;;13.65;9.68;;;1.90;99.90;;;;;;5006098;28;20225;-70
2023/12/08 02:14:06;;;;;;;11.80;8.63;;;1.80;99.90;;;;;;5011219;28;20268;-69
2023/12/08 02:16:42;;;;;;;10.57;8.75;;;1.90;99.90;;;;;;5015535;28;20570;-70
2023/12/08 02:19:13;;;;;;;12.20;8.07;;;1.90;99.90;;;;;;5015862;28;20216;-70
2023/12/08 02:21:43;;;;;;;11.20;9.20;;;1.90;99.90;;;;;;5005126;28;20221;-69
2023/12/08 02:24:12;;;;;;;10.52;8.50;;;2.00;99.90;;;;;;5007096;28;20556;-69
2023/12/08 02:26:40;;;;;;;11.57;8.75;;;2.00;99.90;;;;;;5005007;28;20215;-69
2023/12/08 02:29:09;;;;;;;11.75;8.13;;;2.10;99.90;;;;;;5013555;28;20297;-70
2023/12/08 02:31:43;;;;;;;11.15;8.07;;;2.10;99.90;;;;;;5006323;28;20673;-70
2023/12/08 02:34:14;;;;;;;9.85;7.68;;;2.10;99.90;;;;;;5015269;28;20220;-70
2023/12/08 02:36:44;;;;;;;10.75;7.95;;;2.10;99.90;;;;;;5001431;28;20202;-69
2023/12/08 02:39:15;;;;;;;13.98;10.27;;;2.00;99.90;;;;;;5014651;28;20203;-69
2023/12/08 02:41:44;;;;;;;12.13;9.15;;;2.00;99.90;;;;;;5011169;28;20598;-70
2023/12/08 02:44:12;;;;;;;11.98;8.57;;;2.00;99.90;;;;;;4997982;28;20205;-69
2023/12/08 02:46:40;;;;;;;9.65;7.45;;;2.10;99.90;;;;;;5005032;28;20196;-69
2023/12/08 02:49:08;;;;;;;10.70;7.22;;;2.10;99.90;;;;;;5013062;28;20581;-69
2023/12/08 02:51:36;;;;;;;11.68;8.48;;;2.10;99.90;;;;;;5002485;28;20229;-70
2023/12/08 02:54:04;;;;;;;13.50;8.75;;;2.00;99.90;;;;;;5010999;28;20209;-70
2023/12/08 02:56:34;;;;;;;13.93;10.23;;;2.10;99.90;;;;;;5006524;28;20479;-70
2023/12/08 02:59:02;;;;;;;11.23;8.45;;;2.20;99.90;;;;;;5003943;28;20307;-71
2023/12/08 03:01:29;;;;;;;10.65;7.55;;;2.10;99.90;;;;;;5002986;28;20232;-69
2023/12/08 03:03:57;;;;;;;11.40;8.38;;;2.20;99.90;;;;;;5011692;28;20204;-70
2023/12/08 03:06:25;;;;;;;14.10;9.65;;;2.20;99.90;;;;;;5003946;28;20213;-72
2023/12/08 03:08:54;;;;;;;9.88;7.72;;;2.20;99.90;;;;;;5009800;28;20206;-69
2023/12/08 03:11:22;;;;;;;13.10;9.48;;;2.20;99.90;;;;;;5000970;28;20293;-69
2023/12/08 03:13:51;;;;;;;10.43;7.72;;;2.20;99.90;;;;;;5011520;28;20209;-69
2023/12/08 03:16:19;;;;;;;10.75;7.95;;;2.20;99.90;;;;;;5011683;28;20217;-70
2023/12/08 03:18:46;;;;;;;11.55;8.10;;;2.20;99.90;;;;;;5013723;28;20220;-70
2023/12/08 03:21:22;;;;;;;12.07;8.82;;;2.20;99.90;;;;;;5003571;28;20707;-71
2023/12/08 03:23:50;;;;;;;11.55;8.00;;;2.20;99.90;;;;;;5019763;28;20223;-70
2023/12/08 03:26:19;;;;;;;10.45;8.43;;;2.20;99.90;;;;;;5002604;28;20731;-67
2023/12/08 03:28:47;;;;;;;11.10;7.32;;;2.20;99.90;;;;;;5007958;28;20201;-68
2023/12/08 03:31:27;;;;;;;9.02;6.93;;;2.10;99.90;;;;;;5007743;28;20209;-69
2023/12/08 03:33:55;;;;;;;9.50;7.28;;;2.10;99.90;;;;;;5007949;28;20205;-69
2023/12/08 03:36:23;;;;;;;11.93;7.78;;;2.10;99.90;;;;;;5002249;28;20221;-68
2023/12/08 03:38:51;;;;;;;9.35;7.13;;;2.10;99.90;;;;;;5009239;28;20218;-68
2023/12/08 03:41:19;;;;;;;11.15;8.00;;;2.20;99.90;;;;;;5000918;28;20589;-68
2023/12/08 03:43:47;;;;;;;10.27;7.55;;;2.20;99.90;;;;;;5009331;28;20664;-68
2023/12/08 03:46:15;;;;;;;12.27;8.32;;;2.20;99.90;;;;;;5017252;28;20208;-68
2023/12/08 03:48:45;;;;;;;11.48;7.75;;;2.30;99.90;;;;;;5019232;28;20209;-68
2023/12/08 03:51:13;;;;;;;12.55;9.55;;;2.20;99.90;;;;;;5013313;28;20205;-68
2023/12/08 03:53:41;;;;;;;10.48;8.20;;;2.20;99.90;;;;;;5010387;28;20691;-67
2023/12/08 03:56:09;;;;;;;9.85;7.53;;;2.20;99.90;;;;;;5011590;28;20231;-69
2023/12/08 03:58:37;;;;;;;11.13;7.07;;;2.20;99.90;;;;;;5014725;28;20295;-69
2023/12/08 04:01:06;;;;;;;10.15;7.45;;;2.30;99.90;;;;;;5009484;28;20206;-69
2023/12/08 04:03:34;;;;;;;8.80;7.18;;;2.20;99.90;;;;;;5001521;28;20218;-69
2023/12/08 04:06:03;;;;;;;8.50;7.10;;;2.20;99.90;;;;;;5005815;28;20205;-69
2023/12/08 04:08:31;;;;;;;12.75;8.68;;;2.20;99.90;;;;;;5009560;28;20217;-69
2023/12/08 04:10:59;;;;;;;10.35;7.80;;;2.20;99.90;;;;;;5009207;28;20210;-70
2023/12/08 04:13:27;;;;;;;16.27;9.82;;;2.20;99.90;;;;;;5012512;28;20237;-69
2023/12/08 04:15:55;;;;;;;11.20;8.07;;;2.20;99.90;;;;;;5006399;28;20267;-71
2023/12/08 04:18:23;;;;;;;9.05;7.50;;;2.30;99.90;;;;;;5012419;28;20217;-70
2023/12/08 04:20:51;;;;;;;12.88;9.13;;;2.30;99.90;;;;;;5013224;28;20208;-70
2023/12/08 04:23:20;;;;;;;13.38;8.57;;;2.30;99.90;;;;;;5005027;28;20261;-70
2023/12/08 04:25:48;;;;;;;10.80;8.02;;;2.20;99.90;;;;;;5008683;28;20684;-70
2023/12/08 04:28:16;;;;;;;12.45;8.40;;;2.20;99.90;;;;;;5005314;28;20211;-70
2023/12/08 04:30:44;;;;;;;10.98;8.18;;;2.20;99.90;;;;;;5015288;28;20209;-70
2023/12/08 04:33:12;;;;;;;9.25;7.22;;;2.20;99.90;;;;;;5006286;28;20653;-69
2023/12/08 04:35:40;;;;;;;8.60;7.43;;;2.20;99.90;;;;;;5005979;28;20681;-70
2023/12/08 04:38:08;;;;;;;10.90;8.10;;;2.20;99.90;;;;;;5008931;28;20584;-70
2023/12/08 04:40:37;;;;;;;12.27;8.80;;;2.30;99.90;;;;;;5010434;28;20600;-74
2023/12/08 04:43:05;;;;;;;10.90;8.27;;;2.30;99.90;;;;;;5012489;28;20229;-71
2023/12/08 04:45:33;;;;;;;11.20;7.93;;;2.20;99.90;;;;;;5008911;28;20608;-69
2023/12/08 04:48:01;;;;;;;13.98;8.55;;;2.30;99.90;;;;;;5014435;28;20218;-70
2023/12/08 04:50:29;;;;;;;11.07;8.98;;;2.30;99.90;;;;;;5018222;28;20616;-70
2023/12/08 04:52:57;;;;;;;11.05;8.23;;;2.20;99.90;;;;;;5017828;28;20233;-70
2023/12/08 04:55:25;;;;;;;10.18;7.70;;;2.20;99.90;;;;;;5012015;28;20236;-70
2023/12/08 04:57:54;;;;;;;10.73;8.43;;;2.20;99.90;;;;;;5012835;28;20205;-67
2023/12/08 05:00:22;;;;;;;9.88;7.15;;;2.20;99.90;;;;;;5006148;28;20219;-70
2023/12/08 05:02:50;;;;;;;14.23;8.65;;;2.20;99.90;;;;;;5008153;28;20370;-70
2023/12/08 05:05:18;;;;;;;12.35;7.93;;;2.20;99.90;;;;;;5004651;28;20285;-70
2023/12/08 05:07:46;;;;;;;12.57;8.75;;;2.10;99.90;;;;;;5014860;28;20205;-70
2023/12/08 05:10:14;;;;;;;12.88;8.50;;;2.10;99.90;;;;;;5020068;28;20209;-69
2023/12/08 05:12:42;;;;;;;11.45;7.78;;;2.10;99.90;;;;;;5008407;28;20232;-69
2023/12/08 05:15:11;;;;;;;11.48;8.02;;;2.10;99.90;;;;;;5018028;28;20212;-70
2023/12/08 05:17:40;;;;;;;12.85;8.88;;;2.00;99.90;;;;;;5012783;28;20284;-70
2023/12/08 05:20:11;;;;;;;15.75;9.35;;;1.90;99.90;;;;;;5015032;28;20205;-69
2023/12/08 05:22:39;;;;;;;14.23;9.13;;;2.00;99.90;;;;;;5012118;28;20661;-70
2023/12/08 05:25:08;;;;;;;11.63;8.30;;;2.00;99.90;;;;;;5017349;28;20236;-70
2023/12/08 05:27:36;;;;;;;12.52;8.90;;;2.00;99.90;;;;;;5012170;28;20213;-70
2023/12/08 05:30:05;;;;;;;12.15;8.95;;;2.00;99.90;;;;;;5014859;28;20213;-70
2023/12/08 05:32:34;;;;;;;16.25;10.07;;;2.00;99.90;;;;;;5015989;28;20726;-69
2023/12/08 05:35:02;;;;;;;16.15;9.25;;;1.90;99.90;;;;;;5012456;28;20209;-70
2023/12/08 05:37:30;;;;;;;15.20;9.98;;;2.00;99.90;;;;;;5011646;28;20243;-70
2023/12/08 05:39:58;;;;;;;11.27;8.80;;;1.90;99.90;;;;;;5014831;28;20267;-69
2023/12/08 05:42:26;;;;;;;15.80;11.27;;;1.90;99.90;;;;;;5011922;28;20229;-71
2023/12/08 05:44:54;;;;;;;14.32;9.95;;;1.80;99.90;;;;;;5011783;28;20208;-69
2023/12/08 05:47:22;;;;;;;15.50;10.00;;;1.90;99.90;;;;;;5015175;28;20651;-70
2023/12/08 05:49:51;;;;;;;13.90;9.80;;;1.80;99.90;;;;;;5012138;28;20690;-69
2023/12/08 05:52:19;;;;;;;13.18;9.07;;;1.90;99.90;;;;;;5008084;28;20299;-70
2023/12/08 05:54:47;;;;;;;11.02;8.65;;;1.80;99.90;;;;;;5013839;28;20224;-69
2023/12/08 05:57:15;;;;;;;13.05;8.30;;;1.80;99.90;;;;;;5011287;28;20228;-71
2023/12/08 05:59:43;;;;;;;12.68;10.27;;;1.80;99.90;;;;;;5014366;28;20622;-70
2023/12/08 06:02:11;;;;;;;16.15;10.88;;;1.80;99.90;;;;;;5013981;28;20224;-70
2023/12/08 06:04:39;;;;;;;16.10;11.20;;;1.80;99.90;;;;;;5016661;28;20738;-69
2023/12/08 06:07:08;;;;;;;14.52;11.07;;;1.70;99.90;;;;;;5012996;28;20232;-69
2023/12/08 06:09:36;;;;;;;14.80;11.00;;;1.80;99.90;;;;;;5020841;28;20255;-69
2023/12/08 06:12:05;;;;;;;14.95;10.63;;;1.70;99.90;;;;;;5011153;28;20225;-70
2023/12/08 06:14:33;;;;;;;14.25;11.10;;;1.70;99.90;;;;;;5011431;28;20296;-69
2023/12/08 06:17:01;;;;;;;15.60;11.18;;;1.80;99.90;;;;;;5011817;28;20596;-67
2023/12/08 06:19:29;;;;;;;16.30;11.57;;;1.80;99.90;;;;;;5012756;28;20213;-69
2023/12/08 06:21:57;;;;;;;13.18;9.95;;;1.80;99.90;;;;;;5012438;28;20232;-70
2023/12/08 06:24:26;;;;;;;13.88;10.43;;;1.70;99.90;;;;;;5018886;28;20709;-71
2023/12/08 06:26:54;;;;;;;18.23;12.05;;;1.70;99.90;;;;;;5005703;28;20237;-70
2023/12/08 06:29:22;;;;;;;17.25;10.55;;;1.80;99.90;;;;;;5002653;28;20220;-69
2023/12/08 06:31:50;;;;;;;14.55;11.05;;;1.80;99.90;;;;;;5005747;28;20238;-69
2023/12/08 06:34:18;;;;;;;15.90;10.90;;;1.90;99.90;;;;;;4996145;28;20662;-69
2023/12/08 06:36:48;;;;;;;15.55;11.05;;;1.80;99.90;;;;;;5002481;28;20237;-68
2023/12/08 06:39:16;;;;;;;20.13;11.18;;;1.80;99.90;;;;;;4999237;28;20217;-67
2023/12/08 06:41:45;;;;;;;17.20;11.43;;;1.80;99.90;;;;;;5000077;28;20239;-69
2023/12/08 06:44:13;;;;;;;17.65;11.77;;;1.80;99.90;;;;;;4997391;28;20224;-70
2023/12/08 06:46:42;;;;;;;15.00;11.02;;;1.80;99.90;;;;;;4999271;28;20207;-72
2023/12/08 06:49:10;;;;;;;16.67;11.77;;;1.80;99.90;;;;;;4998975;28;20197;-69
2023/12/08 06:51:38;;;;;;;20.20;11.13;;;1.80;99.90;;;;;;5000267;28;20312;-67
2023/12/08 06:54:06;;;;;;;18.65;11.38;;;1.80;99.90;;;;;;4996772;28;20205;-68
2023/12/08 06:56:35;;;;;;;16.58;11.40;;;1.70;99.90;;;;;;4999741;28;20225;-67
2023/12/08 06:59:04;;;;;;;18.05;10.63;;;1.60;99.90;;;;;;4998932;28;20761;-67
2023/12/08 07:01:32;;;;;;;15.43;11.10;;;1.60;99.90;;;;;;4980769;28;21160;-69
2023/12/08 07:04:00;;;;;;;15.57;11.68;;;1.60;99.90;;;;;;4999045;28;20221;-68
2023/12/08 07:06:28;;;;;;;16.92;11.20;;;1.50;99.90;;;;;;4999030;28;20216;-69
2023/12/08 07:08:56;;;;;;;22.05;12.63;;;1.60;99.90;;;;;;4999110;28;20231;-68
2023/12/08 07:11:24;;;;;;;17.38;11.40;;;1.50;99.90;;;;;;4999673;28;20221;-68
2023/12/08 07:13:52;;;;;;;13.70;9.95;;;1.50;99.90;;;;;;4999378;28;20220;-67
2023/12/08 07:16:21;;;;;;;18.83;11.60;;;1.50;99.90;;;;;;4998144;28;20213;-69
2023/12/08 07:18:49;;;;;;;16.63;10.90;;;1.50;99.90;;;;;;4999755;28;21500;-68
2023/12/08 07:21:17;;;;;;;14.98;11.35;;;1.60;99.90;;;;;;4998916;28;20292;-68
2023/12/08 07:23:45;;;;;;;16.48;10.75;;;1.60;99.90;;;;;;4998852;28;20212;-67
2023/12/08 07:26:14;;;;;;;16.48;11.02;;;1.50;99.90;;;;;;4998837;28;20200;-67
2023/12/08 07:28:42;;;;;;;17.13;11.13;;;1.50;99.90;;;;;;4998736;28;20213;-69
2023/12/08 07:31:12;;;;;;;13.75;10.32;;;1.50;99.90;;;;;;4998687;28;20216;-69
2023/12/08 07:33:41;;;;;;;20.70;12.40;;;1.50;99.90;;;;;;4998436;28;20247;-71
2023/12/08 07:36:10;;;;;;;15.75;11.38;;;1.40;99.90;;;;;;4998463;28;20205;-67
2023/12/08 07:38:38;;;;;;;19.02;12.30;;;1.50;99.90;;;;;;4999796;28;20248;-69
2023/12/08 07:41:07;;;;;;;18.77;12.20;;;1.40;99.90;;;;;;4998610;28;20217;-67
2023/12/08 07:43:35;;;;;;;14.48;10.43;;;1.30;99.90;;;;;;4999376;28;20237;-67
2023/12/08 07:46:04;;;;;;;16.23;10.98;;;1.30;99.90;;;;;;4999053;28;20633;-67
2023/12/08 07:48:32;;;;;;;18.33;11.93;;;1.40;99.90;;;;;;4999250;28;20205;-70
2023/12/08 07:51:01;;;;;;;19.33;11.77;;;1.40;99.90;;;;;;4997988;28;20713;-67
2023/12/08 07:53:29;;;;;;;20.50;12.52;;;1.40;99.90;;;;;;4998878;28;20236;-68
2023/12/08 07:55:57;;;;;;;17.08;9.85;;;1.40;99.90;;;;;;4998065;28;20303;-68
2023/12/08 07:58:26;;;;;;;20.40;12.93;;;1.40;99.90;;;;;;4998810;28;20314;-67
2023/12/08 08:00:54;;;;;;;19.40;12.10;;;1.50;99.90;;;;;;5002024;28;20209;-69
2023/12/08 08:03:22;;;;;;;20.13;12.98;;;1.40;99.90;;;;;;5002327;28;20240;-68
2023/12/08 08:05:50;;;;;;;18.00;12.05;;;1.50;99.90;;;;;;5002776;28;20642;-67
2023/12/08 08:08:19;;;;;;;16.48;10.95;;;1.50;99.90;;;;;;5001540;28;20284;-68
2023/12/08 08:10:47;;;;;;;18.13;12.07;;;1.50;99.90;;;;;;5002048;28;20213;-67
2023/12/08 08:13:15;;;;;;;17.48;11.48;;;1.60;99.90;;;;;;5001651;28;20233;-68
2023/12/08 08:15:43;;;;;;;18.90;11.10;;;1.60;99.90;;;;;;5001539;28;20217;-68
2023/12/08 08:18:11;;;;;;;21.67;12.35;;;1.60;99.90;;;;;;5002299;28;20229;-68
2023/12/08 08:20:39;;;;;;;19.75;12.20;;;1.60;99.90;;;;;;5001613;28;20232;-69
2023/12/08 08:23:07;;;;;;;23.15;12.73;;;1.60;99.90;;;;;;5001850;28;20348;-70
2023/12/08 08:25:36;;;;;;;26.90;14.68;;;1.60;99.90;;;;;;5001385;28;20676;-69
2023/12/08 08:28:04;;;;;;;21.27;12.82;;;1.50;99.90;;;;;;5001827;28;20201;-69
2023/12/08 08:30:33;;;;;;;19.35;11.80;;;1.50;99.90;;;;;;5001610;28;20220;-68
2023/12/08 08:33:01;;;;;;;19.27;12.52;;;1.50;99.90;;;;;;5001614;28;20326;-68
2023/12/08 08:35:29;;;;;;;16.38;10.77;;;1.50;99.90;;;;;;5001079;28;20213;-68
2023/12/08 08:37:58;;;;;;;18.98;12.23;;;1.40;99.90;;;;;;5002215;28;20259;-68
2023/12/08 08:40:26;;;;;;;19.00;11.80;;;1.40;99.90;;;;;;5001601;28;20213;-69
2023/12/08 08:42:55;;;;;;;22.10;12.73;;;1.40;99.90;;;;;;5002326;28;20786;-68
2023/12/08 08:45:23;;;;;;;14.65;10.18;;;1.40;99.90;;;;;;5001435;28;20205;-70
2023/12/08 08:47:51;;;;;;;16.90;10.80;;;1.50;99.90;;;;;;5001902;28;20236;-70
2023/12/08 08:50:21;;;;;;;19.25;12.27;;;1.50;99.90;;;;;;5001420;28;20221;-70
2023/12/08 08:52:49;;;;;;;16.83;11.73;;;1.60;99.90;;;;;;5002378;28;20229;-69
2023/12/08 08:55:17;;;;;;;21.38;13.07;;;1.60;99.90;;;;;;5001985;28;20210;-67
2023/12/08 08:57:46;;;;;;;17.65;11.75;;;1.60;99.90;;;;;;5002316;28;20240;-68
2023/12/08 09:00:18;;;;;;;19.63;12.45;;;1.60;99.90;;;;;;5000701;28;20632;-69
2023/12/08 09:02:51;;;;;;;23.77;13.40;;;1.70;99.90;;;;;;5001232;28;20332;-68
2023/12/08 09:05:19;;;;;;;23.80;13.48;;;1.70;99.90;;;;;;5001061;28;20299;-68
2023/12/08 09:07:47;;;;;;;19.15;10.57;;;1.70;99.90;;;;;;5001522;28;20205;-67
2023/12/08 09:10:15;;;;;;;30.27;16.98;;;1.80;99.90;;;;;;5000375;28;20205;-68
2023/12/08 09:12:44;;;;;;;30.33;19.73;;;1.80;99.90;;;;;;4999634;28;20311;-68
2023/12/08 09:15:13;;;;;;;31.92;19.15;;;1.80;99.90;;;;;;5000291;28;20209;-67
2023/12/08 09:17:43;;;;;;;22.45;13.18;;;1.70;99.90;;;;;;5000807;28;20321;-69
2023/12/08 09:20:14;;;;;;;19.40;13.40;;;1.70;99.90;;;;;;4999689;28;20213;-68
2023/12/08 09:22:42;;;;;;;20.23;13.63;;;1.70;99.90;;;;;;5000461;28;20231;-67
2023/12/08 09:25:11;;;;;;;19.35;11.90;;;1.70;99.90;;;;;;5000851;28;20707;-70
2023/12/08 09:27:39;;;;;;;23.52;12.00;;;1.70;99.90;;;;;;5000160;28;20216;-68
2023/12/08 09:30:08;;;;;;;18.90;11.80;;;1.80;99.90;;;;;;5001221;28;20292;-67
2023/12/08 09:32:36;;;;;;;19.80;12.48;;;1.80;99.90;;;;;;5000212;28;20592;-68
2023/12/08 09:35:06;;;;;;;19.00;14.30;;;1.70;99.90;;;;;;5000848;28;20225;-68
2023/12/08 09:37:35;;;;;;;18.20;12.13;;;1.70;99.90;;;;;;5000450;28;20217;-73
2023/12/08 09:40:08;;;;;;;17.42;12.23;;;1.80;99.90;;;;;;4999816;28;20205;-69
2023/12/08 09:42:40;;;;;;;20.63;11.63;;;1.80;99.90;;;;;;5000858;28;20643;-68
2023/12/08 09:45:10;;;;;;;23.67;13.70;;;1.90;99.90;;;;;;5003552;28;20193;-67
2023/12/08 09:47:41;;;;;;;24.08;14.80;;;1.80;99.90;;;;;;5000545;28;20652;-69
2023/12/08 09:50:13;;;;;;;20.73;13.05;;;1.80;99.90;;;;;;5000547;28;20209;-68
2023/12/08 09:52:43;;;;;;;24.15;15.25;;;1.80;99.90;;;;;;4999737;28;21173;-67
2023/12/08 09:55:12;;;;;;;18.40;12.38;;;1.70;99.90;;;;;;4999801;28;20263;-69
2023/12/08 09:57:43;;;;;;;21.80;13.55;;;1.70;99.90;;;;;;5001055;28;20196;-69
2023/12/08 10:00:13;;;;;;;20.05;11.75;;;1.80;99.90;;;;;;4999317;28;20213;-67
2023/12/08 10:02:42;;;;;;;25.13;14.45;;;1.80;99.90;;;;;;4999940;28;20785;-68
2023/12/08 10:05:12;;;;;;;19.30;11.05;;;1.80;99.90;;;;;;4999349;28;20224;-69
2023/12/08 10:07:43;;;;;;;16.63;11.73;;;1.80;99.90;;;;;;4999424;28;20284;-69
2023/12/08 10:10:12;;;;;;;19.30;13.68;;;1.80;99.90;;;;;;4999001;28;20206;-68
2023/12/08 10:12:40;;;;;;;19.08;12.23;;;1.80;99.90;;;;;;4998539;28;20704;-67
2023/12/08 10:15:10;;;;;;;16.55;11.13;;;1.80;99.90;;;;;;4998983;28;20267;-68
2023/12/08 10:17:47;;;;;;;18.02;11.80;;;1.90;99.90;;;;;;4998980;28;20209;-67
2023/12/08 10:20:19;;;;;;;18.55;13.40;;;1.90;99.90;;;;;;4999286;28;20315;-70
2023/12/08 10:22:48;;;;;;;18.42;12.88;;;1.90;99.90;;;;;;4999250;28;20316;-70
2023/12/08 10:25:18;;;;;;;18.80;12.45;;;2.00;99.90;;;;;;4999775;28;20205;-70
2023/12/08 10:27:47;;;;;;;15.43;11.10;;;2.10;99.90;;;;;;4999848;28;20213;-70
2023/12/08 10:30:15;;;;;;;18.10;11.77;;;2.20;99.90;;;;;;4997302;28;20213;-71
2023/12/08 10:32:44;;;;;;;17.92;10.73;;;2.30;99.90;;;;;;4998686;28;20252;-70
2023/12/08 10:35:12;;;;;;;17.45;10.90;;;2.30;99.90;;;;;;4999743;28;20259;-69
2023/12/08 10:37:43;;;;;;;16.33;10.35;;;2.40;99.90;;;;;;4998938;28;20300;-69
2023/12/08 10:40:13;;;;;;;16.23;11.80;;;2.50;99.90;;;;;;4997685;28;20233;-66
2023/12/08 10:42:41;;;;;;;17.35;11.98;;;2.50;99.90;;;;;;4997995;28;20229;-66
2023/12/08 10:45:10;;;;;;;17.30;11.15;;;2.40;99.90;;;;;;4998634;28;20209;-69
2023/12/08 10:47:40;;;;;;;18.48;11.25;;;2.50;99.90;;;;;;4998880;28;20220;-69
2023/12/08 10:50:10;;;;;;;19.90;12.10;;;2.60;99.90;;;;;;4997835;28;20197;-69
2023/12/08 10:52:39;;;;;;;18.42;11.10;;;2.70;99.90;;;;;;4999283;28;20314;-69
2023/12/08 10:55:10;;;;;;;19.80;11.27;;;2.70;99.90;;;;;;4998646;28;20205;-69
2023/12/08 10:57:38;;;;;;;15.05;10.30;;;2.80;99.90;;;;;;4998917;28;20891;-72
2023/12/08 11:00:16;;;;;;;16.95;10.90;;;2.90;99.90;;;;;;4998064;28;20252;-70
2023/12/08 11:02:49;;;;;;;18.33;12.43;;;3.00;99.90;;;;;;4993625;28;20232;-69
2023/12/08 11:05:23;;;;;;;14.07;9.23;;;3.10;99.90;;;;;;4998430;28;20218;-68
2023/12/08 11:07:54;;;;;;;16.58;10.68;;;3.10;99.90;;;;;;4999491;28;20224;-68
2023/12/08 11:10:25;;;;;;;14.73;10.38;;;3.10;99.90;;;;;;4996815;28;20210;-69
2023/12/08 11:12:58;;;;;;;19.25;12.15;;;3.20;99.90;;;;;;4999338;28;20637;-69
2023/12/08 11:15:31;;;;;;;14.85;9.90;;;3.30;99.90;;;;;;4998985;28;20259;-68
2023/12/08 11:18:12;;;;;;;19.33;11.18;;;3.40;99.90;;;;;;4998871;28;20197;-69
2023/12/08 11:20:42;;;;;;;17.77;10.98;;;3.40;99.90;;;;;;5008695;28;20220;-70
2023/12/08 11:23:12;;;;;;;16.48;11.70;;;3.40;99.90;;;;;;4999793;28;21395;-69
2023/12/08 11:25:47;;;;;;;15.13;10.63;;;3.40;99.90;;;;;;4998830;28;20202;-68
2023/12/08 11:28:23;;;;;;;20.35;12.23;;;3.30;99.90;;;;;;4997671;28;20215;-68
2023/12/08 11:30:56;;;;;;;15.60;11.15;;;3.40;99.90;;;;;;4997189;28;20302;-69
2023/12/08 11:33:31;;;;;;;17.65;11.50;;;3.30;99.90;;;;;;4997610;28;20725;-69
2023/12/08 11:36:07;;;;;;;16.70;10.95;;;3.20;99.90;;;;;;4998287;28;20200;-71
2023/12/08 11:38:37;;;;;;;15.95;10.38;;;3.10;99.90;;;;;;4997319;28;20204;-72
2023/12/08 11:41:13;;;;;;;16.67;12.05;;;3.20;99.90;;;;;;4998544;28;20205;-70
2023/12/08 11:43:43;;;;;;;20.55;12.10;;;3.20;99.90;;;;;;4997456;28;20208;-70
2023/12/08 11:46:12;;;;;;;18.05;10.63;;;3.10;99.90;;;;;;4998586;28;20213;-70
2023/12/08 11:48:42;;;;;;;19.48;12.35;;;3.20;99.90;;;;;;4997984;28;20197;-71
2023/12/08 11:51:11;;;;;;;16.08;11.27;;;3.20;99.90;;;;;;4998475;28;20686;-69
2023/12/08 11:53:57;;;;;;;17.50;10.05;;;3.10;99.90;;;;;;4998329;28;20324;-68
2023/12/08 11:56:41;;;;;;;20.10;11.95;;;3.10;99.90;;;;;;4998983;28;20217;-70
2023/12/08 11:59:13;;;;;;;17.00;12.13;;;3.00;99.90;;;;;;4996901;28;20201;-69
2023/12/08 12:01:42;;;;;;;21.23;11.48;;;3.00;99.90;;;;;;4998207;28;21150;-70
2023/12/08 12:04:10;;;;;;;19.13;12.30;;;3.00;99.90;;;;;;4998641;28;20211;-69
2023/12/08 12:06:43;;;;;;;17.85;11.27;;;3.00;99.90;;;;;;4998779;28;20340;-69
2023/12/08 12:09:13;;;;;;;17.33;10.82;;;3.00;99.90;;;;;;4996755;28;20295;-68
2023/12/08 12:11:44;;;;;;;16.02;9.90;;;3.00;99.90;;;;;;4998984;28;20229;-70
2023/12/08 12:14:17;;;;;;;15.85;11.13;;;3.10;99.90;;;;;;4999026;28;20227;-69
2023/12/08 12:16:47;;;;;;;22.35;14.27;;;3.10;99.90;;;;;;4998519;28;20216;-70
2023/12/08 12:19:15;;;;;;;21.50;11.68;;;3.20;99.90;;;;;;4997120;28;20213;-70
2023/12/08 12:21:44;;;;;;;18.45;12.00;;;3.30;99.90;;;;;;4998490;28;20235;-70
2023/12/08 12:24:12;;;;;;;26.65;13.85;;;3.30;99.90;;;;;;4998506;28;20217;-69
2023/12/08 12:26:40;;;;;;;20.38;11.90;;;3.30;99.90;;;;;;4997552;28;20225;-69
2023/12/08 12:29:09;;;;;;;24.42;12.75;;;3.20;99.90;;;;;;4996911;28;20764;-70
2023/12/08 12:31:38;;;;;;;21.25;12.30;;;3.20;99.90;;;;;;4997425;28;20237;-69
2023/12/08 12:34:06;;;;;;;21.48;12.10;;;3.20;99.90;;;;;;4998600;28;20205;-69
2023/12/08 12:36:34;;;;;;;15.30;10.98;;;3.20;99.90;;;;;;4998310;28;20301;-69
2023/12/08 12:39:03;;;;;;;17.88;11.77;;;3.30;99.90;;;;;;4996660;28;20224;-71
2023/12/08 12:41:32;;;;;;;22.52;12.27;;;3.30;99.90;;;;;;4997878;28;20582;-71
2023/12/08 12:44:02;;;;;;;18.73;10.93;;;3.40;99.90;;;;;;4998616;28;20228;-71
2023/12/08 12:46:31;;;;;;;18.95;11.43;;;3.40;99.90;;;;;;5001293;28;20568;-70
2023/12/08 12:48:59;;;;;;;23.05;13.35;;;3.40;99.90;;;;;;5001686;28;20212;-70
2023/12/08 12:51:37;;;;;;;23.17;11.73;;;3.50;99.90;;;;;;5002506;28;20256;-71